Russell, Pennsylvania
Current Conditions -  °F | °C
As of 1:35 AM on Friday 31 Oct 2014 (Local Time) from KJHW Reporting Station
Scattered Clouds Scattered Clouds  
Wind Chill: 34°   Ceiling: Unl
Heat Index: 37°   Visibility: 10mi
Dew Point: 36°   Wind: 5mph
Humidity: 93%   Direction: 200°SSW
Pressure: 29.99"   Gusts: NA
Location:  41.94°N, 79.13°W
Report Text: KJHW 310535Z AUTO 20004KT 10SM SCT110 03/02 A2999 RMK AO1
Loading
Personal Weather Stations






























Interactive Weather Map
Tropical Storm Tracking
New forecast layout! Learn more

10-Day Weather Forecast

Advertisements
Track Severe Weather on mobile